createdAt,value
2023-02-11T00:03:01.513Z,95.56
2023-02-11T00:07:04.850Z,94.89
2023-02-11T00:11:09.602Z,95.03
2023-02-11T00:15:12.928Z,95.15
2023-02-11T00:19:16.018Z,95.47
2023-02-11T00:23:20.745Z,94.63
2023-02-11T00:27:25.165Z,94.52
2023-02-11T00:31:29.474Z,95.04
2023-02-11T00:35:32.627Z,93.23
2023-02-11T00:39:35.645Z,94.21
2023-02-11T00:43:41.765Z,94.11
2023-02-11T00:47:45.008Z,93.76
2023-02-11T00:51:47.978Z,94.57
2023-02-11T00:55:51.395Z,94.15
2023-02-11T00:59:56.264Z,95.30
2023-02-11T01:03:59.428Z,94.46
2023-02-11T01:08:03.278Z,95.50
2023-02-11T01:12:08.807Z,93.55
2023-02-11T01:16:13.756Z,94.21
2023-02-11T01:20:19.682Z,93.40
2023-02-11T01:24:22.958Z,91.74
2023-02-11T01:28:28.249Z,91.60
2023-02-11T01:32:32.727Z,92.73
2023-02-11T01:36:35.920Z,91.03
2023-02-11T01:40:39.322Z,90.86
2023-02-11T01:44:42.382Z,90.35
2023-02-11T01:48:51.536Z,90.87
2023-02-11T01:52:54.532Z,90.65
2023-02-11T01:57:18.330Z,90.18
2023-02-11T02:01:26.574Z,89.49
2023-02-11T02:05:37.416Z,89.22
2023-02-11T02:09:45.667Z,88.91
2023-02-11T02:13:49.426Z,89.64
2023-02-11T02:18:01.681Z,90.20
2023-02-11T02:22:40.470Z,90.84
2023-02-11T02:27:18.991Z,90.28
2023-02-11T02:31:49.129Z,90.09
2023-02-11T02:36:04.137Z,89.77
2023-02-11T02:40:13.794Z,90.66
2023-02-11T02:44:16.511Z,89.90
2023-02-11T02:48:30.893Z,89.23
2023-02-11T02:52:44.275Z,89.21
2023-02-11T02:56:51.630Z,88.04
2023-02-11T03:01:05.165Z,88.99
2023-02-11T03:05:17.231Z,87.99
2023-02-11T03:09:27.642Z,87.72
2023-02-11T03:13:35.909Z,87.47
2023-02-11T03:17:42.845Z,88.56
2023-02-11T03:21:47.846Z,87.75
2023-02-11T03:25:57.554Z,87.24
2023-02-11T03:30:07.059Z,85.99
2023-02-11T03:34:15.994Z,85.94
2023-02-11T03:38:23.857Z,85.35
2023-02-11T03:42:34.832Z,85.56
2023-02-11T03:46:42.807Z,86.04
2023-02-11T03:50:47.665Z,85.20
2023-02-11T03:54:55.093Z,85.61
2023-02-11T03:59:00.327Z,85.11
2023-02-11T04:03:03.591Z,86.13
2023-02-11T04:07:06.677Z,85.83
2023-02-11T04:11:09.693Z,85.97
2023-02-11T04:15:14.857Z,84.65
2023-02-11T04:19:18.219Z,85.86
2023-02-11T04:23:21.274Z,85.44
2023-02-11T04:27:24.657Z,86.17
2023-02-11T04:31:29.345Z,86.00
2023-02-11T04:35:32.575Z,85.93
2023-02-11T04:39:36.000Z,87.21
2023-02-11T04:43:39.153Z,86.87
2023-02-11T04:47:43.787Z,87.05
2023-02-11T04:51:49.672Z,86.91
2023-02-11T04:55:53.496Z,86.76
2023-02-11T04:59:56.641Z,87.12
2023-02-11T05:04:01.385Z,84.95
2023-02-11T05:08:04.768Z,85.86
2023-02-11T05:12:08.504Z,85.78
2023-02-11T05:16:11.364Z,85.03
2023-02-11T05:20:16.185Z,84.56
2023-02-11T05:24:19.117Z,83.26
2023-02-11T05:28:22.249Z,83.96
2023-02-11T05:32:25.451Z,84.69
2023-02-11T05:36:48.380Z,83.95
2023-02-11T05:40:51.473Z,83.15
2023-02-11T05:44:54.568Z,83.93
2023-02-11T05:48:57.870Z,83.25
2023-02-11T05:53:02.541Z,82.54
2023-02-11T05:57:05.942Z,81.53
2023-02-11T06:01:11.694Z,81.11
2023-02-11T06:05:16.937Z,80.53
2023-02-11T06:09:21.334Z,81.37
2023-02-11T06:13:24.342Z,81.61
2023-02-11T06:17:29.067Z,80.63
2023-02-11T06:21:43.229Z,80.70
2023-02-11T06:25:49.281Z,81.03
2023-02-11T06:29:53.848Z,80.14
2023-02-11T06:33:57.081Z,81.11
2023-02-11T06:38:00.441Z,79.29
2023-02-11T06:42:07.850Z,79.38
2023-02-11T06:46:14.675Z,80.65
2023-02-11T06:50:17.788Z,79.19
2023-02-11T06:54:20.705Z,78.88
2023-02-11T06:58:24.887Z,79.03
2023-02-11T07:02:28.144Z,79.38
2023-02-11T07:06:33.322Z,79.31
2023-02-11T07:10:36.529Z,79.04
2023-02-11T07:14:43.863Z,79.15
2023-02-11T07:18:47.489Z,80.07
2023-02-11T07:22:50.751Z,79.22
2023-02-11T07:26:55.133Z,79.31
2023-02-11T07:31:00.471Z,80.19
2023-02-11T07:35:05.505Z,79.74
2023-02-11T07:39:08.856Z,80.10
2023-02-11T07:43:11.878Z,80.34
2023-02-11T07:47:19.426Z,81.74
2023-02-11T07:51:26.038Z,81.91
2023-02-11T07:55:31.939Z,83.30
2023-02-11T07:59:40.217Z,84.49
2023-02-11T08:03:44.739Z,86.56
2023-02-11T08:07:47.804Z,88.00
2023-02-11T08:11:51.959Z,89.22
2023-02-11T08:16:00.695Z,90.88
2023-02-11T08:20:05.444Z,92.76
2023-02-11T08:24:14.893Z,93.98
2023-02-11T08:28:17.927Z,94.50
2023-02-11T08:32:20.873Z,96.52
2023-02-11T08:36:27.069Z,98.16
2023-02-11T08:40:30.459Z,98.79
2023-02-11T08:44:33.670Z,98.07
2023-02-11T08:48:39.948Z,98.31
2023-02-11T08:52:46.484Z,99.13
2023-02-11T08:56:52.929Z,100.00
2023-02-11T09:00:57.738Z,100.00
2023-02-11T09:05:00.825Z,100.00
2023-02-11T09:09:05.098Z,100.00
2023-02-11T09:13:08.834Z,100.00
2023-02-11T09:17:11.932Z,99.64
2023-02-11T09:21:15.823Z,98.20
2023-02-11T09:25:20.517Z,97.59
2023-02-11T09:29:23.451Z,96.22
2023-02-11T09:33:27.534Z,94.98
2023-02-11T09:37:30.440Z,95.46
2023-02-11T09:41:56.236Z,95.93
2023-02-11T09:45:59.544Z,95.81
2023-02-11T09:50:06.187Z,96.97
2023-02-11T09:54:15.575Z,97.09
2023-02-11T09:58:25.923Z,97.22
2023-02-11T10:02:38.181Z,97.30
2023-02-11T10:06:48.328Z,97.87
2023-02-11T10:10:55.394Z,97.85
2023-02-11T10:15:14.334Z,97.36
2023-02-11T10:19:47.688Z,100.00
2023-02-11T10:23:56.096Z,100.00
2023-02-11T10:28:02.808Z,100.00
2023-02-11T10:32:16.466Z,100.00
2023-02-11T10:36:28.050Z,100.00
2023-02-11T10:40:33.035Z,100.00
2023-02-11T10:44:39.496Z,100.00
2023-02-11T10:48:46.748Z,100.00
2023-02-11T10:52:49.976Z,100.00
2023-02-11T10:57:01.094Z,100.00
2023-02-11T11:01:19.017Z,100.00
2023-02-11T11:05:33.168Z,100.00
2023-02-11T11:09:48.344Z,100.00
2023-02-11T11:13:58.368Z,100.00
2023-02-11T11:18:24.335Z,100.00
2023-02-11T11:22:28.774Z,100.00
2023-02-11T11:26:44.946Z,100.00
2023-02-11T11:30:47.787Z,100.00
2023-02-11T11:34:52.949Z,100.00
2023-02-11T11:39:00.471Z,100.00
2023-02-11T11:43:21.312Z,100.00
2023-02-11T11:47:36.557Z,100.00
2023-02-11T11:51:42.623Z,100.00
2023-02-11T11:55:50.664Z,100.00
2023-02-11T11:59:53.969Z,100.00
2023-02-11T12:04:34.384Z,100.00
2023-02-11T12:08:45.859Z,100.00
2023-02-11T12:12:56.610Z,100.00
2023-02-11T12:17:07.629Z,100.00
2023-02-11T12:21:27.537Z,100.00
2023-02-11T12:25:36.947Z,100.00
2023-02-11T12:29:50.790Z,100.00
2023-02-11T12:34:15.725Z,100.00
2023-02-11T12:38:42.695Z,100.00
2023-02-11T12:43:22.626Z,100.00
2023-02-11T12:47:37.040Z,100.00
2023-02-11T12:51:53.718Z,100.00
2023-02-11T12:56:00.996Z,100.00
2023-02-11T13:00:09.608Z,100.00
2023-02-11T13:04:21.486Z,100.00
2023-02-11T13:08:30.514Z,100.00
2023-02-11T13:12:52.792Z,100.00
2023-02-11T13:16:57.249Z,100.00
2023-02-11T13:21:18.697Z,100.00
2023-02-11T13:25:29.868Z,100.00
2023-02-11T13:29:46.349Z,100.00
2023-02-11T13:33:50.161Z,100.00
2023-02-11T13:37:54.297Z,100.00
2023-02-11T13:42:05.754Z,100.00
2023-02-11T13:46:11.518Z,100.00
2023-02-11T13:50:24.736Z,100.00
2023-02-11T13:54:33.462Z,100.00
2023-02-11T13:58:40.214Z,100.00
2023-02-11T14:03:03.190Z,100.00
2023-02-11T14:07:44.854Z,100.00
2023-02-11T14:11:51.485Z,100.00
2023-02-11T14:16:10.995Z,100.00
2023-02-11T14:20:37.330Z,100.00
2023-02-11T14:24:53.151Z,100.00
2023-02-11T14:29:04.231Z,100.00
2023-02-11T14:33:36.438Z,100.00
2023-02-11T14:37:50.993Z,100.00
2023-02-11T14:41:55.129Z,100.00
2023-02-11T14:46:02.849Z,100.00
2023-02-11T14:50:15.891Z,100.00
2023-02-11T14:54:23.029Z,100.00
2023-02-11T14:58:28.802Z,100.00
2023-02-11T15:02:38.642Z,100.00
2023-02-11T15:06:44.170Z,100.00
2023-02-11T15:10:50.473Z,100.00
2023-02-11T15:14:56.780Z,100.00
2023-02-11T15:19:07.615Z,100.00
2023-02-11T15:23:21.158Z,100.00
2023-02-11T15:27:26.012Z,100.00
2023-02-11T15:31:31.171Z,100.00
2023-02-11T15:35:41.385Z,100.00
2023-02-11T15:39:44.945Z,100.00
2023-02-11T15:43:50.947Z,100.00
2023-02-11T15:47:57.346Z,100.00
2023-02-11T15:52:02.037Z,100.00
2023-02-11T15:56:12.933Z,100.00
2023-02-11T16:00:22.993Z,100.00
2023-02-11T16:04:28.865Z,100.00
2023-02-11T16:08:34.933Z,100.00
2023-02-11T16:12:38.347Z,100.00
2023-02-11T16:16:43.775Z,100.00
2023-02-11T16:20:52.123Z,100.00
2023-02-11T16:25:00.798Z,100.00
2023-02-11T16:29:08.606Z,100.00
2023-02-11T16:33:12.833Z,100.00
2023-02-11T16:37:16.301Z,100.00
2023-02-11T16:41:23.422Z,100.00
2023-02-11T16:45:26.930Z,100.00
2023-02-11T16:49:32.780Z,100.00
2023-02-11T16:53:38.760Z,100.00
2023-02-11T16:57:44.739Z,100.00
2023-02-11T17:01:49.879Z,100.00
2023-02-11T17:05:56.799Z,100.00
2023-02-11T17:09:59.969Z,100.00
2023-02-11T17:14:04.717Z,100.00
2023-02-11T17:18:07.481Z,100.00
2023-02-11T17:22:12.784Z,100.00
2023-02-11T17:26:18.275Z,100.00
2023-02-11T17:30:23.541Z,100.00
2023-02-11T17:34:29.387Z,100.00
2023-02-11T17:38:34.436Z,100.00
2023-02-11T17:42:37.539Z,100.00
2023-02-11T17:46:42.504Z,100.00
2023-02-11T17:50:45.931Z,100.00
2023-02-11T17:54:49.378Z,100.00
2023-02-11T17:58:53.242Z,100.00
2023-02-11T18:03:02.941Z,100.00
2023-02-11T18:07:06.805Z,100.00
2023-02-11T18:11:13.386Z,100.00
2023-02-11T18:15:17.320Z,100.00
2023-02-11T18:19:21.965Z,100.00
2023-02-11T18:23:26.821Z,100.00
2023-02-11T18:27:30.060Z,100.00
2023-02-11T18:31:33.265Z,100.00
2023-02-11T18:35:40.837Z,100.00
2023-02-11T18:39:45.622Z,100.00
2023-02-11T18:43:50.938Z,100.00
2023-02-11T18:47:57.548Z,100.00
2023-02-11T18:52:03.851Z,100.00
2023-02-11T18:56:11.735Z,100.00
2023-02-11T19:00:16.360Z,100.00
2023-02-11T19:04:20.302Z,100.00
2023-02-11T19:08:25.043Z,100.00
2023-02-11T19:12:28.403Z,100.00
2023-02-11T19:16:34.340Z,100.00
2023-02-11T19:20:40.338Z,100.00
2023-02-11T19:24:45.105Z,100.00
2023-02-11T19:28:48.430Z,100.00
2023-02-11T19:32:55.082Z,100.00
2023-02-11T19:36:59.855Z,100.00
2023-02-11T19:41:05.350Z,100.00
2023-02-11T19:45:12.118Z,100.00
2023-02-11T19:49:18.069Z,100.00
2023-02-11T19:53:21.316Z,100.00
2023-02-11T19:57:26.840Z,100.00
2023-02-11T20:01:32.638Z,100.00
2023-02-11T20:05:37.405Z,100.00
2023-02-11T20:09:41.220Z,100.00
2023-02-11T20:13:46.346Z,100.00
2023-02-11T20:17:49.621Z,100.00
2023-02-11T20:21:59.848Z,100.00
2023-02-11T20:26:08.013Z,100.00
2023-02-11T20:30:17.001Z,100.00
2023-02-11T20:34:21.565Z,100.00
2023-02-11T20:38:25.323Z,100.00
2023-02-11T20:42:28.944Z,100.00
2023-02-11T20:46:34.777Z,100.00
2023-02-11T20:50:38.376Z,100.00
2023-02-11T20:54:41.774Z,100.00
2023-02-11T20:58:47.074Z,100.00
2023-02-11T21:02:56.591Z,100.00
2023-02-11T21:07:03.489Z,100.00
2023-02-11T21:11:09.620Z,100.00
2023-02-11T21:15:16.477Z,100.00
2023-02-11T21:19:27.995Z,100.00
2023-02-11T21:23:30.891Z,100.00
2023-02-11T21:27:34.647Z,100.00
2023-02-11T21:31:39.359Z,100.00
2023-02-11T21:35:44.418Z,100.00
2023-02-11T21:39:50.635Z,100.00
2023-02-11T21:43:54.067Z,100.00
2023-02-11T21:47:57.444Z,100.00
2023-02-11T21:52:02.182Z,100.00
2023-02-11T21:56:10.428Z,100.00
2023-02-11T22:00:15.108Z,100.00
2023-02-11T22:04:18.548Z,100.00
2023-02-11T22:08:22.875Z,100.00
2023-02-11T22:12:26.199Z,100.00
2023-02-11T22:16:33.020Z,100.00
2023-02-11T22:20:36.433Z,100.00
2023-02-11T22:24:44.641Z,100.00
2023-02-11T22:28:48.160Z,96.01
2023-02-11T22:32:50.970Z,90.99
2023-02-11T22:36:54.206Z,90.01
2023-02-11T22:40:58.950Z,90.78
2023-02-11T22:45:03.325Z,90.71
2023-02-11T22:49:07.777Z,89.30
2023-02-11T22:53:10.965Z,87.49
2023-02-11T22:57:15.477Z,88.44
2023-02-11T23:01:19.284Z,86.93
2023-02-11T23:05:22.701Z,88.82
2023-02-11T23:09:26.138Z,88.65
2023-02-11T23:13:31.323Z,88.06
2023-02-11T23:17:34.350Z,87.01
2023-02-11T23:21:40.285Z,86.74
2023-02-11T23:25:45.084Z,86.18
2023-02-11T23:29:49.755Z,86.62
2023-02-11T23:33:53.911Z,87.77
2023-02-11T23:37:57.111Z,86.83
2023-02-11T23:42:00.415Z,88.12
2023-02-11T23:46:08.595Z,87.73
2023-02-11T23:50:12.978Z,86.63
2023-02-11T23:54:16.722Z,85.98
2023-02-11T23:58:19.578Z,86.99
